Time;durP1;ratioP1;P1;durP2;ratioP2;P2;SDS_P1;SDS_P2;PMS_P1;PMS_P2;Temp;Humidity;BMP_temperature;BMP_pressure;BME280_temperature;BME280_humidity;BME280_pressure;Samples;Min_cycle;Max_cycle;Signal;HPM_P1;HPM_P2
2023/03/27 00:02:12;;;;;;;10.82;1.90;;;;;;;5.67;100.00;99352.63;5037588;28;20059;-75
2023/03/27 00:04:40;;;;;;;14.00;1.83;;;;;;;5.68;100.00;99362.22;5050141;28;20037;-75
2023/03/27 00:07:05;;;;;;;7.03;1.67;;;;;;;5.76;100.00;99383.13;5046393;28;20158;-75
2023/03/27 00:09:31;;;;;;;12.40;1.90;;;;;;;5.66;100.00;99382.31;5044859;28;20085;-75
2023/03/27 00:11:57;;;;;;;15.13;2.83;;;;;;;5.70;100.00;99387.50;5037241;28;20479;-75
2023/03/27 00:14:23;;;;;;;12.25;1.88;;;;;;;5.74;100.00;99385.78;5051377;28;20045;-75
2023/03/27 00:16:49;;;;;;;13.63;2.38;;;;;;;5.70;100.00;99394.50;5046660;28;20082;-75
2023/03/27 00:19:15;;;;;;;20.02;2.30;;;;;;;5.62;100.00;99399.78;5035123;28;20120;-75
2023/03/27 00:21:43;;;;;;;7.88;1.58;;;;;;;5.41;100.00;99403.34;5031903;28;20037;-75
2023/03/27 00:24:09;;;;;;;12.52;1.75;;;;;;;5.36;100.00;99409.47;5049199;28;20048;-75
2023/03/27 00:26:35;;;;;;;11.45;1.65;;;;;;;5.16;100.00;99410.41;5045998;28;20037;-75
2023/03/27 00:29:00;;;;;;;11.32;2.53;;;;;;;5.05;100.00;99414.75;5040610;28;20527;-75
2023/03/27 00:31:26;;;;;;;18.05;2.05;;;;;;;5.05;100.00;99412.16;5030679;28;20053;-75
2023/03/27 00:33:51;;;;;;;10.50;1.88;;;;;;;5.03;100.00;99411.28;5047088;28;20041;-75
2023/03/27 00:36:16;;;;;;;11.65;1.85;;;;;;;5.04;100.00;99424.34;5034511;28;20037;-75
2023/03/27 00:38:42;;;;;;;10.95;2.45;;;;;;;4.88;100.00;99412.19;5050355;28;20025;-78
2023/03/27 00:41:07;;;;;;;8.57;2.17;;;;;;;4.79;100.00;99426.16;5031226;28;20454;-77
2023/03/27 00:43:35;;;;;;;9.13;2.13;;;;;;;4.71;100.00;99434.84;5037998;28;20105;-77
2023/03/27 00:46:06;;;;;;;13.15;2.08;;;;;;;4.70;100.00;99430.50;5045019;28;20037;-76
2023/03/27 00:48:35;;;;;;;13.27;1.73;;;;;;;4.67;100.00;99433.13;5027646;28;20461;-77
2023/03/27 00:51:02;;;;;;;9.68;1.58;;;;;;;4.54;100.00;99435.72;5016908;28;20098;-76
2023/03/27 00:53:29;;;;;;;14.27;2.10;;;;;;;4.56;100.00;99440.94;5051081;28;20052;-76
2023/03/27 00:56:00;;;;;;;15.25;2.15;;;;;;;4.51;100.00;99443.56;5029548;28;20127;-76
2023/03/27 00:58:29;;;;;;;10.18;2.20;;;;;;;4.49;100.00;99445.28;5034398;28;20411;-76
2023/03/27 01:00:56;;;;;;;9.38;1.83;;;;;;;4.45;100.00;99455.72;5032112;28;20610;-76
2023/03/27 01:03:28;;;;;;;9.70;1.88;;;;;;;4.38;100.00;99458.34;5023132;28;20032;-76
2023/03/27 01:05:56;;;;;;;13.93;2.37;;;;;;;4.36;100.00;99459.19;5046099;28;20419;-77
2023/03/27 01:08:23;;;;;;;13.52;1.58;;;;;;;4.35;100.00;99460.09;5048784;28;20033;-76
2023/03/27 01:11:13;;;;;;;9.07;1.52;;;;;;;4.37;100.00;99471.38;5028853;28;20029;-76
2023/03/27 01:14:03;;;;;;;12.18;1.98;;;;;;;4.36;100.00;99483.59;5045006;28;20037;-77
2023/03/27 01:16:44;;;;;;;14.52;2.55;;;;;;;4.30;100.00;99472.25;5038639;28;20059;-77
2023/03/27 01:19:50;;;;;;;8.10;1.85;;;;;;;4.26;100.00;99467.88;5047604;28;20036;-77
2023/03/27 01:22:57;;;;;;;8.70;1.48;;;;;;;4.37;100.00;99477.47;5043939;28;20053;-77
2023/03/27 01:26:00;;;;;;;11.38;1.48;;;;;;;4.27;100.00;99477.44;5041761;28;20399;-75
2023/03/27 01:28:31;;;;;;;;;;;;;;;4.30;100.00;99470.53;5045520;28;20025;-75
2023/03/27 01:31:26;;;;;;;9.38;1.70;;;;;;;4.39;100.00;99480.97;5019115;28;19912;-75
2023/03/27 01:33:55;;;;;;;;;;;;;;;4.45;100.00;99487.06;5042472;28;20111;-75
2023/03/27 01:36:48;;;;;;;9.55;2.25;;;;;;;4.53;100.00;99493.19;5036292;28;19991;-75
2023/03/27 01:39:41;;;;;;;6.57;2.00;;;;;;;4.50;100.00;99499.28;5049846;28;20029;-75
2023/03/27 01:42:33;;;;;;;11.30;1.63;;;;;;;4.39;100.00;99507.09;5041696;28;20099;-74
2023/03/27 01:45:05;;;;;;;12.63;2.58;;;;;;;4.43;100.00;99522.78;5003004;28;20171;-75
2023/03/27 01:47:57;;;;;;;18.05;2.22;;;;;;;4.42;100.00;99515.81;5027194;28;20044;-75
2023/03/27 01:50:43;;;;;;;10.48;1.70;;;;;;;4.44;100.00;99525.41;5025441;28;20037;-75
2023/03/27 01:53:24;;;;;;;9.77;2.22;;;;;;;4.41;100.00;99529.75;5029328;28;20041;-75
2023/03/27 01:55:57;;;;;;;10.88;1.58;;;;;;;4.38;100.00;99534.09;5027935;28;20096;-75
2023/03/27 01:58:28;;;;;;;9.73;1.65;;;;;;;4.50;100.00;99535.00;5030947;28;20426;-75
2023/03/27 02:01:00;;;;;;;11.05;2.83;;;;;;;4.51;100.00;99534.13;5027266;28;20040;-75
2023/03/27 02:03:44;;;;;;;19.10;2.65;;;;;;;4.46;100.00;99548.94;5028732;28;20510;-75
2023/03/27 02:06:15;;;;;;;16.38;1.85;;;;;;;4.41;100.00;99545.44;5029743;28;20048;-75
2023/03/27 02:08:47;;;;;;;11.15;2.58;;;;;;;4.39;100.00;99559.34;5026173;28;20037;-75
2023/03/27 02:11:16;;;;;;;13.43;2.20;;;;;;;4.39;100.00;99558.47;5039284;28;20029;-75
2023/03/27 02:13:48;;;;;;;15.20;2.17;;;;;;;4.44;100.00;99563.72;5029137;28;20040;-75
2023/03/27 02:16:20;;;;;;;14.90;1.83;;;;;;;4.46;100.00;99569.84;5030894;28;20029;-75
2023/03/27 02:19:01;;;;;;;8.70;1.75;;;;;;;4.42;100.00;99566.31;5020332;28;20025;-75
2023/03/27 02:21:30;;;;;;;10.32;2.13;;;;;;;4.46;100.00;99573.31;5039985;28;20031;-75
2023/03/27 02:24:00;;;;;;;6.47;1.63;;;;;;;4.41;100.00;99579.41;5029818;28;20057;-75
2023/03/27 02:26:28;;;;;;;7.72;2.30;;;;;;;4.37;100.00;99584.59;5041769;28;20111;-75
2023/03/27 02:29:18;;;;;;;9.02;2.03;;;;;;;4.38;100.00;99588.97;5029417;28;20033;-75
2023/03/27 02:31:57;;;;;;;11.02;1.77;;;;;;;4.33;100.00;99595.03;5037647;28;20764;-74
2023/03/27 02:34:57;;;;;;;9.30;1.45;;;;;;;4.29;100.00;99604.59;5021481;28;20041;-75
2023/03/27 02:37:34;;;;;;;8.32;1.75;;;;;;;4.23;100.00;99615.00;5027361;28;20057;-75
2023/03/27 02:40:54;;;;;;;11.63;1.90;;;;;;;4.25;100.00;99609.81;5052311;28;20098;-75
2023/03/27 02:43:52;;;;;;;6.05;1.30;;;;;;;4.17;100.00;99620.22;5111253;22;20109;-77
2023/03/27 02:46:34;;;;;;;8.10;1.65;;;;;;;4.18;100.00;99628.03;5067448;28;20459;-77
2023/03/27 02:49:08;;;;;;;13.38;2.35;;;;;;;4.20;100.00;99641.13;5085502;28;20126;-77
2023/03/27 02:51:39;;;;;;;7.93;1.38;;;;;;;4.11;100.00;99641.06;5085117;28;20070;-77
2023/03/27 02:54:15;;;;;;;8.20;1.60;;;;;;;4.10;100.00;99650.63;5061542;28;20052;-76
2023/03/27 02:56:48;;;;;;;9.40;2.03;;;;;;;4.05;100.00;99656.69;5049575;28;20406;-77
2023/03/27 02:59:26;;;;;;;5.32;1.70;;;;;;;4.03;100.00;99671.47;5044964;28;20036;-77
2023/03/27 03:01:52;;;;;;;16.15;2.05;;;;;;;4.00;100.00;99668.84;5057345;28;20033;-77
2023/03/27 03:04:25;;;;;;;5.75;1.80;;;;;;;3.97;100.00;99671.44;5052631;28;20032;-77
2023/03/27 03:07:14;;;;;;;4.00;0.90;;;;;;;3.95;100.00;99677.50;5055300;28;20067;-77
2023/03/27 03:09:41;;;;;;;10.93;2.30;;;;;;;3.90;100.00;99691.41;5048779;28;20029;-76
2023/03/27 03:12:08;;;;;;;7.72;1.40;;;;;;;3.87;100.00;99696.59;5059853;28;20024;-77
2023/03/27 03:14:42;;;;;;;6.75;1.17;;;;;;;3.80;100.00;99693.09;5049976;28;20083;-78
2023/03/27 03:17:09;;;;;;;10.20;1.75;;;;;;;3.80;100.00;99700.91;5046171;28;20067;-77
2023/03/27 03:19:35;;;;;;;3.55;1.15;;;;;;;3.76;100.00;99701.75;5063013;28;20033;-77
2023/03/27 03:22:01;;;;;;;4.35;1.25;;;;;;;3.77;100.00;99706.09;5060649;28;20487;-78
2023/03/27 03:24:26;;;;;;;6.40;1.67;;;;;;;3.71;100.00;99714.75;5055427;28;20029;-78
2023/03/27 03:26:52;;;;;;;8.40;1.33;;;;;;;3.71;100.00;99721.69;5066673;28;20107;-77
2023/03/27 03:29:18;;;;;;;9.52;1.70;;;;;;;3.66;100.00;99726.00;5052752;28;20498;-77
2023/03/27 03:31:56;;;;;;;7.95;1.55;;;;;;;3.64;100.00;99738.16;5047260;28;20029;-77
2023/03/27 03:34:22;;;;;;;7.03;1.67;;;;;;;3.60;100.00;99739.88;5029945;28;20108;-77
2023/03/27 03:36:48;;;;;;;5.45;1.25;;;;;;;3.60;100.00;99746.84;5044175;28;20565;-77
2023/03/27 03:39:17;;;;;;;6.40;1.10;;;;;;;3.58;100.00;99754.63;5046080;28;20490;-77
2023/03/27 03:41:45;;;;;;;4.70;1.35;;;;;;;3.53;100.00;99755.44;5048160;28;20392;-77
2023/03/27 03:44:11;;;;;;;7.30;1.50;;;;;;;3.53;100.00;99766.75;5062457;28;20044;-78
2023/03/27 03:46:38;;;;;;;4.68;1.20;;;;;;;3.51;100.00;99765.88;5057639;28;20490;-77
2023/03/27 03:49:03;;;;;;;6.13;1.30;;;;;;;3.50;100.00;99772.81;5044258;28;20112;-77
2023/03/27 03:51:30;;;;;;;9.55;1.45;;;;;;;3.45;100.00;99771.91;5048180;28;20055;-78
2023/03/27 03:53:56;;;;;;;5.50;1.20;;;;;;;3.43;100.00;99778.84;5071555;28;20439;-77
2023/03/27 03:56:22;;;;;;;4.88;1.15;;;;;;;3.43;100.00;99780.56;5053129;28;20079;-78
2023/03/27 03:58:50;;;;;;;5.93;1.40;;;;;;;3.43;100.00;99791.91;5048899;28;20055;-78
2023/03/27 04:01:19;;;;;;;3.28;1.25;;;;;;;3.45;100.00;99802.34;5065437;28;20037;-78
2023/03/27 04:03:48;;;;;;;;;;;;;;;3.44;100.00;99804.06;5047067;28;20082;-77
2023/03/27 04:06:25;;;;;;;5.80;1.13;;;;;;;3.38;100.00;99805.72;5052959;28;19925;-78
2023/03/27 04:08:55;;;;;;;7.43;1.58;;;;;;;3.37;100.00;99817.91;5047540;28;20040;-78
2023/03/27 04:11:40;;;;;;;9.13;1.35;;;;;;;3.40;100.00;99825.75;5050737;28;20047;-78
2023/03/27 04:14:12;;;;;;;;;;;;;;;3.40;100.00;99830.09;5057181;28;20033;-77
2023/03/27 04:16:41;;;;;;;3.90;1.08;;;;;;;3.40;100.00;99827.50;5060132;28;19916;-78
2023/03/27 04:19:17;;;;;;;3.05;1.20;;;;;;;3.31;100.00;99833.47;5055448;28;20575;-77
2023/03/27 04:21:43;;;;;;;6.13;1.70;;;;;;;3.32;100.00;99840.44;5052506;28;20036;-78
2023/03/27 04:24:13;;;;;;;2.92;1.10;;;;;;;3.27;100.00;99856.06;5055548;28;20033;-78
2023/03/27 04:26:43;;;;;;;6.25;1.75;;;;;;;3.24;100.00;99866.41;5060141;28;20039;-78
2023/03/27 04:29:24;;;;;;;6.25;1.38;;;;;;;3.18;100.00;99868.09;5068298;28;20399;-78
2023/03/27 04:31:59;;;;;;;6.97;1.65;;;;;;;3.20;100.00;99867.25;5070527;28;20048;-79
2023/03/27 04:34:40;;;;;;;4.32;1.70;;;;;;;3.15;100.00;99878.50;5068900;28;20040;-79
2023/03/27 04:37:39;;;;;;;3.63;1.33;;;;;;;3.15;100.00;99886.31;5039223;28;20044;-77
2023/03/27 04:40:24;;;;;;;3.72;1.23;;;;;;;3.11;100.00;99903.63;5065632;28;20052;-76
2023/03/27 04:42:49;;;;;;;7.65;1.67;;;;;;;3.15;100.00;99908.03;5067156;28;20025;-77
2023/03/27 04:45:17;;;;;;;5.38;1.30;;;;;;;3.19;100.00;99922.84;5053480;28;20387;-79
2023/03/27 04:47:45;;;;;;;5.15;1.55;;;;;;;3.22;100.00;99922.94;5051688;28;20112;-78
2023/03/27 04:50:11;;;;;;;3.15;1.17;;;;;;;3.26;100.00;99923.81;5053616;28;20112;-78
2023/03/27 04:52:37;;;;;;;2.53;1.15;;;;;;;3.32;100.00;99923.03;5069238;28;20044;-77
2023/03/27 04:55:03;;;;;;;3.75;1.30;;;;;;;3.38;100.00;99931.81;5069869;28;20162;-77
2023/03/27 04:57:30;;;;;;;4.95;1.45;;;;;;;3.43;100.00;99940.59;5061126;28;20410;-79
2023/03/27 04:59:59;;;;;;;9.20;1.63;;;;;;;3.47;100.00;99952.81;5073974;28;20297;-79
2023/03/27 05:02:52;;;;;;;3.33;1.30;;;;;;;3.42;100.00;99956.22;5075864;28;20036;-78
2023/03/27 05:05:30;;;;;;;4.32;1.02;;;;;;;3.41;100.00;99960.56;5056886;28;20029;-77
2023/03/27 05:07:56;;;;;;;4.72;1.25;;;;;;;3.36;100.00;99964.84;5057203;28;20545;-79
2023/03/27 05:10:23;;;;;;;7.72;1.67;;;;;;;3.34;100.00;99963.94;5045929;28;20028;-77
2023/03/27 05:12:51;;;;;;;4.57;1.50;;;;;;;3.27;100.00;99968.19;5049614;28;20036;-77
2023/03/27 05:15:18;;;;;;;5.00;1.90;;;;;;;3.22;100.00;99974.19;5046083;28;20531;-77
2023/03/27 05:17:51;;;;;;;6.55;1.50;;;;;;;3.23;100.00;99978.56;5044277;28;20089;-77
2023/03/27 05:20:18;;;;;;;3.22;1.13;;;;;;;3.23;100.00;99982.03;5049900;28;20087;-77
2023/03/27 05:22:44;;;;;;;4.95;1.35;;;;;;;3.19;100.00;99989.78;5049082;28;20028;-78
2023/03/27 05:25:24;;;;;;;7.05;1.27;;;;;;;3.17;100.00;99996.69;5048164;28;20082;-78
2023/03/27 05:27:51;;;;;;;6.10;1.80;;;;;;;3.21;100.00;99998.50;5047542;28;20054;-77
2023/03/27 05:30:19;;;;;;;8.60;1.88;;;;;;;3.27;100.00;100014.25;5051159;28;20054;-77
2023/03/27 05:32:50;;;;;;;4.65;1.30;;;;;;;3.29;100.00;100009.94;5056402;28;20039;-79
2023/03/27 05:35:23;;;;;;;4.30;1.50;;;;;;;3.22;100.00;100011.59;5071223;28;20032;-77
2023/03/27 05:37:52;;;;;;;3.83;1.20;;;;;;;3.21;100.00;100019.38;5054002;28;20032;-78
2023/03/27 05:40:27;;;;;;;4.32;1.33;;;;;;;3.18;100.00;100024.56;5029980;28;20036;-79
2023/03/27 05:42:55;;;;;;;3.13;1.08;;;;;;;3.19;100.00;100028.91;5032575;28;20109;-77
2023/03/27 05:45:25;;;;;;;4.27;1.77;;;;;;;3.17;100.00;100039.31;5056579;28;20116;-77
2023/03/27 05:47:56;;;;;;;4.75;1.40;;;;;;;3.17;100.00;100035.81;5072898;28;20326;-78
2023/03/27 05:50:25;;;;;;;4.05;1.27;;;;;;;3.10;100.00;100045.28;5063503;28;20033;-77
2023/03/27 05:52:57;;;;;;;4.47;1.15;;;;;;;2.98;100.00;100042.47;5033469;28;21949;-77
2023/03/27 05:55:30;;;;;;;4.20;1.20;;;;;;;2.91;100.00;100049.31;5058152;28;20032;-78
2023/03/27 05:57:56;;;;;;;3.45;1.10;;;;;;;2.84;100.00;100063.97;5071445;28;20040;-77
2023/03/27 06:00:26;;;;;;;3.00;1.25;;;;;;;2.88;100.00;100074.44;5067563;28;20059;-78
2023/03/27 06:02:55;;;;;;;4.28;1.70;;;;;;;2.86;100.00;100079.66;5052411;28;20105;-79
2023/03/27 06:05:22;;;;;;;4.95;1.33;;;;;;;2.86;100.00;100079.66;5054381;28;20040;-79
2023/03/27 06:07:49;;;;;;;2.55;1.00;;;;;;;2.80;100.00;100085.63;5053486;28;20041;-78
2023/03/27 06:10:17;;;;;;;4.18;1.52;;;;;;;2.78;100.00;100092.53;5053183;28;20028;-79
2023/03/27 06:13:07;;;;;;;2.70;1.00;;;;;;;2.73;100.00;100094.19;5058484;28;20124;-79
2023/03/27 06:15:52;;;;;;;5.75;0.88;;;;;;;2.71;100.00;100097.59;5049433;28;20029;-78
2023/03/27 06:18:31;;;;;;;3.78;1.20;;;;;;;2.63;100.00;100103.53;5052947;28;20486;-78
2023/03/27 06:20:57;;;;;;;2.20;0.95;;;;;;;2.54;100.00;100118.09;5049795;28;20119;-78
2023/03/27 06:23:22;;;;;;;4.50;1.30;;;;;;;2.43;100.00;100120.50;5057948;28;20086;-77
2023/03/27 06:25:49;;;;;;;3.03;0.90;;;;;;;2.39;100.00;100126.50;5052725;28;20530;-78
2023/03/27 06:28:15;;;;;;;2.83;0.73;;;;;;;2.26;97.96;100120.16;5052675;28;20044;-78
2023/03/27 06:30:46;;;;;;;3.75;0.90;;;;;;;2.21;98.42;100141.75;5053399;28;20106;-78
2023/03/27 06:33:26;;;;;;;3.28;0.80;;;;;;;2.17;98.10;100128.69;5068500;28;20119;-79
2023/03/27 06:35:58;;;;;;;2.65;0.88;;;;;;;2.16;98.65;100120.81;5058285;28;20029;-78
2023/03/27 06:38:31;;;;;;;3.15;1.05;;;;;;;2.11;97.63;100125.91;5036519;28;20032;-78
2023/03/27 06:40:58;;;;;;;3.33;1.02;;;;;;;2.09;97.12;100135.41;5059137;28;20122;-78
2023/03/27 06:43:25;;;;;;;2.10;0.70;;;;;;;2.10;96.98;100120.69;5051082;28;20050;-78
2023/03/27 06:46:05;;;;;;;1.52;0.68;;;;;;;2.10;97.02;100137.19;5052456;28;20037;-78
2023/03/27 06:48:50;;;;;;;1.75;0.80;;;;;;;2.05;96.75;100136.22;5051772;28;20122;-78
2023/03/27 06:51:21;;;;;;;4.85;0.90;;;;;;;2.06;97.86;100140.56;5058753;28;20029;-78
2023/03/27 06:53:48;;;;;;;5.80;0.90;;;;;;;2.10;97.83;100147.59;5049089;28;20052;-78
2023/03/27 06:56:16;;;;;;;2.50;0.88;;;;;;;2.25;98.08;100152.25;5051689;28;20032;-79
2023/03/27 06:59:00;;;;;;;2.20;0.80;;;;;;;2.32;96.94;100167.16;5066875;28;20052;-78
2023/03/27 07:01:26;;;;;;;2.78;0.90;;;;;;;2.40;96.54;100156.91;5051577;28;20041;-79
2023/03/27 07:04:05;;;;;;;2.30;0.70;;;;;;;2.59;96.24;100171.19;5053905;28;20029;-78
2023/03/27 07:06:47;;;;;;;3.78;1.02;;;;;;;2.61;94.84;100162.53;5056745;28;20029;-78
2023/03/27 07:09:13;;;;;;;3.83;0.70;;;;;;;2.76;94.79;100166.31;5040291;28;20097;-79
2023/03/27 07:11:39;;;;;;;3.20;1.00;;;;;;;2.83;94.17;100163.00;5066932;28;20086;-78
2023/03/27 07:14:07;;;;;;;4.18;0.98;;;;;;;2.94;92.28;100171.88;5056069;28;20045;-79
2023/03/27 07:16:32;;;;;;;2.78;0.90;;;;;;;3.05;90.73;100179.91;5059128;28;20025;-79
2023/03/27 07:18:59;;;;;;;1.83;0.70;;;;;;;3.16;89.66;100183.59;5061646;28;20086;-78
2023/03/27 07:21:24;;;;;;;2.10;0.80;;;;;;;3.18;88.41;100167.97;5055974;28;20029;-78
2023/03/27 07:23:50;;;;;;;5.45;1.00;;;;;;;3.26;90.23;100185.50;5050665;28;20035;-78
2023/03/27 07:26:26;;;;;;;2.88;0.90;;;;;;;3.28;88.43;100182.94;5052709;28;20487;-78
2023/03/27 07:28:56;;;;;;;2.00;1.00;;;;;;;3.27;88.64;100187.28;5040692;28;20037;-79
2023/03/27 07:31:21;;;;;;;2.30;1.00;;;;;;;3.52;89.60;100190.31;5040179;28;20394;-79
2023/03/27 07:33:47;;;;;;;4.13;1.60;;;;;;;3.90;86.49;100188.31;5052687;28;20050;-77
2023/03/27 07:36:13;;;;;;;2.72;0.82;;;;;;;4.08;83.66;100184.22;5069207;28;20032;-78
2023/03/27 07:38:42;;;;;;;1.92;0.80;;;;;;;4.09;83.07;100185.97;5047138;28;20029;-78
2023/03/27 07:41:16;;;;;;;3.83;1.00;;;;;;;4.43;84.85;100189.03;5051620;28;20407;-79
2023/03/27 07:43:53;;;;;;;2.17;0.60;;;;;;;4.56;81.36;100185.75;5066590;28;20487;-79
2023/03/27 07:46:22;;;;;;;3.30;0.75;;;;;;;4.63;80.47;100205.84;5057328;28;20520;-78
2023/03/27 07:48:49;;;;;;;2.03;0.57;;;;;;;4.61;79.17;100199.72;5047173;28;20028;-77
2023/03/27 07:51:17;;;;;;;1.95;0.70;;;;;;;4.81;81.26;100194.75;5034202;28;20033;-78
2023/03/27 07:53:43;;;;;;;2.97;1.00;;;;;;;4.78;78.92;100200.81;5048369;28;20036;-78
2023/03/27 07:56:20;;;;;;;3.03;0.70;;;;;;;4.42;76.99;100231.72;5055990;28;20119;-79
2023/03/27 07:58:47;;;;;;;3.78;0.80;;;;;;;4.03;78.27;100212.00;5052410;28;20055;-79
2023/03/27 08:01:18;;;;;;;3.67;0.70;;;;;;;3.74;78.00;100215.00;5055449;28;20054;-78
2023/03/27 08:03:47;;;;;;;4.88;0.90;;;;;;;3.59;78.20;100235.63;5059207;28;20082;-77
2023/03/27 08:06:12;;;;;;;2.35;0.70;;;;;;;3.41;80.40;100224.03;5051554;28;20037;-79
2023/03/27 08:08:38;;;;;;;3.28;0.70;;;;;;;3.36;80.80;100217.84;5058822;28;20041;-79
2023/03/27 08:11:04;;;;;;;1.70;0.60;;;;;;;3.49;81.40;100230.25;5056088;28;20039;-78
2023/03/27 08:13:34;;;;;;;1.73;0.63;;;;;;;3.51;79.57;100232.88;5049773;28;20115;-78
2023/03/27 08:16:10;;;;;;;4.35;1.08;;;;;;;3.71;80.25;100221.06;5046482;28;20033;-78
2023/03/27 08:18:36;;;;;;;2.25;0.90;;;;;;;4.07;77.80;100216.41;5050948;28;20609;-78
2023/03/27 08:21:04;;;;;;;2.40;1.00;;;;;;;4.63;78.55;100212.81;5053518;28;20044;-77
2023/03/27 08:23:31;;;;;;;3.72;0.80;;;;;;;5.00;74.17;100214.16;5057381;28;20499;-78
2023/03/27 08:26:15;;;;;;;5.43;0.70;;;;;;;4.80;71.57;100222.66;5073352;28;20047;-78
2023/03/27 08:28:52;;;;;;;2.40;0.70;;;;;;;4.70;73.51;100238.19;5055091;28;20040;-77
2023/03/27 08:31:20;;;;;;;3.30;0.80;;;;;;;4.43;74.65;100225.63;5039749;28;20035;-78
2023/03/27 08:33:46;;;;;;;2.80;0.60;;;;;;;4.37;74.28;100224.66;5058038;28;20108;-78
2023/03/27 08:36:18;;;;;;;4.03;0.70;;;;;;;4.36;74.25;100233.38;5054730;28;20040;-78
2023/03/27 08:38:45;;;;;;;2.85;0.65;;;;;;;4.40;73.47;100244.75;5050165;28;20171;-79
2023/03/27 08:41:47;;;;;;;1.95;0.77;;;;;;;4.53;72.82;100245.78;5048579;28;20036;-77
2023/03/27 08:44:20;;;;;;;1.98;0.63;;;;;;;4.47;72.52;100253.56;5047190;28;20041;-76
2023/03/27 08:47:01;;;;;;;2.15;0.55;;;;;;;4.43;74.13;100238.69;5055736;28;20110;-78
2023/03/27 08:49:35;;;;;;;1.60;0.57;;;;;;;4.37;74.66;100234.25;5053355;28;20040;-77
2023/03/27 08:52:15;;;;;;;2.70;0.82;;;;;;;4.40;74.85;100239.53;5053396;28;20036;-78
2023/03/27 08:54:49;;;;;;;2.58;0.77;;;;;;;4.61;75.70;100234.63;5058750;28;20028;-78
2023/03/27 08:57:22;;;;;;;3.38;1.10;;;;;;;4.94;73.57;100232.38;5055246;28;20360;-79
2023/03/27 08:59:56;;;;;;;2.10;0.93;;;;;;;5.34;70.72;100236.31;5064133;28;20048;-79
2023/03/27 09:02:47;;;;;;;1.50;0.50;;;;;;;5.57;69.90;100247.00;5046242;28;20451;-77
2023/03/27 09:05:18;;;;;;;2.50;0.57;;;;;;;5.31;69.75;100243.25;5069868;28;20035;-78
2023/03/27 09:08:15;;;;;;;1.90;0.67;;;;;;;5.31;69.61;100243.25;5059369;28;20560;-79
2023/03/27 09:10:43;;;;;;;3.08;0.75;;;;;;;5.38;71.15;100255.56;5053258;28;20040;-79
2023/03/27 09:13:49;;;;;;;4.97;0.60;;;;;;;5.53;67.20;100258.34;5048777;28;20041;-79
2023/03/27 09:16:32;;;;;;;3.33;0.57;;;;;;;5.76;68.67;100245.44;5047940;28;20039;-78
2023/03/27 09:19:13;;;;;;;2.10;0.85;;;;;;;5.93;69.12;100251.75;5048860;28;20068;-79
2023/03/27 09:21:44;;;;;;;4.57;1.33;;;;;;;5.83;63.04;100262.97;5048414;28;20402;-78
2023/03/27 09:24:35;;;;;;;3.40;0.82;;;;;;;5.58;63.20;100268.84;5067439;28;20035;-78
2023/03/27 09:27:27;;;;;;;2.30;1.02;;;;;;;5.42;63.21;100263.47;5064574;28;20516;-77
2023/03/27 09:30:25;;;;;;;5.53;1.63;;;;;;;5.24;66.04;100265.88;5049090;28;20029;-78
2023/03/27 09:33:00;;;;;;;2.05;0.73;;;;;;;4.98;69.84;100290.00;5037997;28;20041;-79
2023/03/27 09:35:26;;;;;;;2.47;0.60;;;;;;;4.69;71.26;100273.03;5051908;28;20085;-78
2023/03/27 09:37:58;;;;;;;2.60;0.70;;;;;;;4.69;70.84;100276.53;5064667;28;20383;-79
2023/03/27 09:40:32;;;;;;;2.78;0.60;;;;;;;4.87;70.80;100290.69;5048406;28;20398;-76
2023/03/27 09:43:07;;;;;;;4.03;0.80;;;;;;;4.87;68.79;100272.38;5061390;28;20056;-79
2023/03/27 09:45:39;;;;;;;2.45;0.82;;;;;;;5.38;64.67;100297.44;5048291;28;20040;-79
2023/03/27 09:48:13;;;;;;;2.88;0.50;;;;;;;5.73;64.04;100284.69;5053644;28;20037;-77
2023/03/27 09:50:45;;;;;;;2.42;0.60;;;;;;;6.01;60.44;100272.75;5050364;28;20036;-79
2023/03/27 09:53:22;;;;;;;1.33;0.32;;;;;;;6.30;61.24;100270.34;5054033;28;20037;-78
2023/03/27 09:56:15;;;;;;;2.17;0.40;;;;;;;6.14;59.88;100295.56;5048800;28;20037;-79
2023/03/27 09:58:47;;;;;;;3.92;0.50;;;;;;;5.91;61.49;100320.66;5047227;28;20074;-78
2023/03/27 10:01:18;;;;;;;3.20;0.75;;;;;;;5.72;61.29;100288.19;5048853;28;20074;-78
2023/03/27 10:03:51;;;;;;;4.32;0.68;;;;;;;5.68;60.51;100300.34;5064389;28;20117;-78
2023/03/27 10:06:30;;;;;;;3.33;0.50;;;;;;;5.77;60.98;100309.19;5055974;28;20119;-79
2023/03/27 10:09:12;;;;;;;3.17;0.90;;;;;;;5.85;61.62;100295.28;5048071;28;20029;-79
2023/03/27 10:11:39;;;;;;;5.50;0.68;;;;;;;5.77;62.61;100296.09;5067395;28;20110;-78
2023/03/27 10:14:18;;;;;;;1.85;0.65;;;;;;;5.90;61.97;100300.59;5045722;28;20029;-77
2023/03/27 10:16:47;;;;;;;5.75;0.65;;;;;;;5.91;61.13;100312.81;5056433;28;20036;-78
2023/03/27 10:19:24;;;;;;;2.40;0.63;;;;;;;5.91;61.80;100315.41;5058606;28;20046;-78
2023/03/27 10:21:51;;;;;;;3.15;0.85;;;;;;;5.74;55.48;100317.00;5034403;28;20040;-79
2023/03/27 10:24:32;;;;;;;3.10;0.70;;;;;;;5.91;55.16;100321.53;5051705;28;20051;-78
2023/03/27 10:27:24;;;;;;;3.10;0.60;;;;;;;6.39;54.97;100301.00;5055993;28;20035;-78
2023/03/27 10:30:27;;;;;;;6.53;0.93;;;;;;;6.29;56.04;100328.91;5047493;28;20069;-79
2023/03/27 10:32:59;;;;;;;2.33;0.60;;;;;;;6.10;56.81;100304.28;5057425;28;20036;-79
2023/03/27 10:35:52;;;;;;;;;;;;;;;5.92;56.60;100328.53;5056239;28;20025;-79
2023/03/27 10:38:32;;;;;;;5.00;0.68;;;;;;;5.86;58.22;100317.13;5052987;28;19920;-78
2023/03/27 10:41:17;;;;;;;3.20;0.77;;;;;;;5.97;58.23;100339.06;5052593;28;20478;-78
2023/03/27 10:43:49;;;;;;;4.53;0.55;;;;;;;6.04;58.50;100338.28;5053124;28;20025;-77
2023/03/27 10:46:21;;;;;;;1.73;0.50;;;;;;;6.17;59.26;100325.28;5064628;28;20491;-78
2023/03/27 10:48:55;;;;;;;3.45;0.50;;;;;;;6.19;56.54;100319.22;5057475;28;20033;-78
2023/03/27 10:51:42;;;;;;;4.88;0.50;;;;;;;6.50;56.25;100322.06;5049833;28;20037;-78
2023/03/27 10:54:29;;;;;;;3.15;0.60;;;;;;;6.44;54.68;100338.59;5056919;28;20037;-78
2023/03/27 10:57:13;;;;;;;3.20;0.80;;;;;;;6.47;55.93;100340.38;5047977;28;20127;-79
2023/03/27 10:59:50;;;;;;;4.78;0.93;;;;;;;6.51;54.90;100319.44;5039993;28;20123;-79
2023/03/27 11:02:38;;;;;;;4.97;0.95;;;;;;;6.57;55.56;100345.69;5058832;28;20066;-79
2023/03/27 11:05:10;;;;;;;8.35;0.90;;;;;;;6.72;56.08;100320.44;5056893;28;20029;-78
2023/03/27 11:07:42;;;;;;;5.18;2.28;;;;;;;6.93;52.99;100333.69;5048535;28;20399;-77
2023/03/27 11:10:30;;;;;;;2.83;0.50;;;;;;;7.24;56.71;100315.47;5047486;28;20037;-79
2023/03/27 11:13:22;;;;;;;2.40;0.63;;;;;;;7.45;51.89;100325.16;5050954;28;20396;-79
2023/03/27 11:16:03;;;;;;;4.55;0.98;;;;;;;7.13;52.94;100343.44;5049755;28;20117;-77
2023/03/27 11:19:15;;;;;;;4.15;0.60;;;;;;;6.43;55.39;100363.06;5067191;28;20064;-78
2023/03/27 11:22:14;;;;;;;5.45;0.55;;;;;;;5.93;57.09;100356.50;5012555;28;20088;-78
2023/03/27 11:24:59;;;;;;;4.45;0.80;;;;;;;6.05;58.00;100341.78;5054189;28;20119;-77
2023/03/27 11:27:34;;;;;;;4.80;1.10;;;;;;;6.63;56.69;100338.72;5052578;28;20463;-78
2023/03/27 11:30:07;;;;;;;4.72;1.20;;;;;;;6.93;55.00;100338.94;5063786;28;20035;-78
2023/03/27 11:32:51;;;;;;;3.35;0.93;;;;;;;7.03;53.65;100337.25;5054455;28;20116;-78
2023/03/27 11:35:22;;;;;;;5.43;1.50;;;;;;;6.98;53.45;100355.59;5054154;28;20127;-77
2023/03/27 11:38:11;;;;;;;3.95;0.70;;;;;;;6.73;52.31;100365.06;5052268;28;20564;-78
2023/03/27 11:40:48;;;;;;;1.17;0.30;;;;;;;6.77;51.41;100363.31;5054985;28;20078;-78
2023/03/27 11:43:15;;;;;;;2.58;0.57;;;;;;;7.12;50.00;100378.38;5050162;28;20029;-78
2023/03/27 11:45:41;;;;;;;7.95;0.93;;;;;;;7.34;49.86;100353.16;5056236;28;20024;-78
2023/03/27 11:48:49;;;;;;;3.55;0.73;;;;;;;7.83;50.04;100358.53;5053688;28;20032;-77
2023/03/27 11:51:53;;;;;;;3.95;1.00;;;;;;;7.56;52.48;100352.34;5058718;28;20051;-78
2023/03/27 11:54:28;;;;;;;2.83;0.70;;;;;;;7.31;53.59;100346.13;5038449;28;20053;-77
2023/03/27 11:57:05;;;;;;;3.28;0.60;;;;;;;7.37;53.53;100351.41;5068490;28;20456;-79
2023/03/27 12:00:05;;;;;;;2.42;0.80;;;;;;;7.61;54.24;100361.09;5050220;28;20045;-79
2023/03/27 12:02:53;;;;;;;6.32;0.93;;;;;;;7.68;47.41;100349.75;5055741;28;20071;-80
2023/03/27 12:05:39;;;;;;;3.88;0.68;;;;;;;7.46;50.72;100351.41;5054209;28;20029;-80
2023/03/27 12:08:20;;;;;;;2.67;0.63;;;;;;;7.33;49.85;100365.38;5069756;28;20025;-79